Time;durP1;ratioP1;P1;durP2;ratioP2;P2;SDS_P1;SDS_P2;PMS_P1;PMS_P2;Temp;Humidity;BMP_temperature;BMP_pressure;BME280_temperature;BME280_humidity;BME280_pressure;Samples;Min_cycle;Max_cycle;Signal;HPM_P1;HPM_P2
2022/10/04 00:05:40;;;;;;;1999.90;999.90;;;9.80;99.90;;;;;;6639245;88;20227;-79
2022/10/04 00:15:40;;;;;;;1999.90;999.90;;;9.60;99.90;;;;;;6628212;89;20264;-79
2022/10/04 00:25:41;;;;;;;1999.90;999.90;;;9.70;99.90;;;;;;6633229;89;20302;-78
2022/10/04 00:35:47;;;;;;;1999.90;999.90;;;9.70;99.90;;;;;;6625396;89;20206;-79
2022/10/04 00:45:51;;;;;;;;;;;9.70;99.90;;;;;;6620715;89;20316;-79
2022/10/04 00:55:57;;;;;;;1999.90;999.90;;;9.70;99.90;;;;;;6632092;89;20073;-80
2022/10/04 01:06:02;;;;;;;1999.90;999.90;;;9.70;99.90;;;;;;6639732;89;20219;-80
2022/10/04 01:16:13;;;;;;;1999.90;999.90;;;9.60;99.90;;;;;;6644758;89;20162;-80
2022/10/04 01:26:31;;;;;;;1999.90;999.90;;;9.40;99.90;;;;;;6643207;89;20238;-80
2022/10/04 01:36:33;;;;;;;1999.90;999.90;;;9.50;99.90;;;;;;6637623;89;20198;-80
2022/10/04 01:46:35;;;;;;;1999.90;999.90;;;9.60;99.90;;;;;;6664161;89;20274;-79
2022/10/04 01:56:48;;;;;;;1999.90;999.90;;;9.50;99.90;;;;;;6638260;89;20212;-79
2022/10/04 02:06:53;;;;;;;1999.90;999.90;;;9.40;99.90;;;;;;6638440;89;20265;-80
2022/10/04 02:16:53;;;;;;;1999.90;999.90;;;9.40;99.90;;;;;;6624384;89;20315;-80
2022/10/04 02:26:54;;;;;;;1999.90;999.90;;;9.40;99.90;;;;;;6632436;89;20236;-80
2022/10/04 02:36:54;;;;;;;1999.90;999.90;;;9.40;99.90;;;;;;6637675;89;20268;-79
2022/10/04 02:47:07;;;;;;;1999.90;999.90;;;9.30;99.90;;;;;;6638688;89;20206;-79
2022/10/04 02:57:18;;;;;;;1999.90;999.90;;;9.40;99.90;;;;;;6630161;89;20205;-80
2022/10/04 03:07:19;;;;;;;1999.90;999.90;;;9.10;99.90;;;;;;6642019;89;20219;-80
2022/10/04 03:17:21;;;;;;;1999.90;999.90;;;9.10;99.90;;;;;;6639820;89;20653;-81
2022/10/04 03:27:27;;;;;;;1999.90;999.90;;;8.80;99.90;;;;;;6638765;88;20209;-79
2022/10/04 03:37:33;;;;;;;1999.90;999.90;;;8.80;99.90;;;;;;6640128;89;20185;-81
2022/10/04 03:47:40;;;;;;;1999.90;999.90;;;8.70;99.90;;;;;;6689938;89;20292;-80
2022/10/04 03:57:41;;;;;;;1999.90;999.90;;;8.70;99.90;;;;;;6655328;89;20193;-79
2022/10/04 04:07:49;;;;;;;1999.90;999.90;;;8.70;99.90;;;;;;6655904;89;20204;-80
2022/10/04 04:17:52;;;;;;;1999.90;999.90;;;8.60;99.90;;;;;;6639552;89;20612;-81
2022/10/04 04:28:04;;;;;;;1999.90;999.90;;;8.70;99.90;;;;;;6706111;88;20206;-80
2022/10/04 04:38:12;;;;;;;1999.90;999.90;;;8.70;99.90;;;;;;6708804;88;20183;-81
2022/10/04 04:48:15;;;;;;;1999.90;999.90;;;8.70;99.90;;;;;;6709282;88;20249;-80
2022/10/04 04:58:23;;;;;;;1999.90;999.90;;;8.60;99.90;;;;;;6652337;88;20204;-81
2022/10/04 05:08:28;;;;;;;1999.90;999.90;;;8.50;99.90;;;;;;6709721;88;20168;-82
2022/10/04 05:18:32;;;;;;;1999.90;999.90;;;8.50;99.90;;;;;;6709593;88;20190;-79
2022/10/04 05:28:33;;;;;;;1999.90;999.90;;;8.50;99.90;;;;;;6707168;88;20767;-79
2022/10/04 05:38:44;;;;;;;1999.90;999.90;;;8.50;99.90;;;;;;6655002;88;20174;-80
2022/10/04 05:48:50;;;;;;;1999.90;999.90;;;8.50;99.90;;;;;;6645359;89;20182;-82
2022/10/04 05:59:23;;;;;;;1999.90;999.90;;;8.30;99.90;;;;;;6675845;88;20317;-77
2022/10/04 06:09:55;;;;;;;1999.90;999.90;;;8.20;99.90;;;;;;6658416;88;20218;-79
2022/10/04 06:20:13;;;;;;;1999.90;999.90;;;8.20;99.90;;;;;;6652391;89;20232;-80
2022/10/04 06:30:16;;;;;;;1999.90;999.90;;;8.40;99.90;;;;;;6641342;89;20297;-79
2022/10/04 06:40:19;;;;;;;1999.90;999.90;;;8.50;99.90;;;;;;6638510;89;20278;-80
2022/10/04 06:50:40;;;;;;;1999.90;999.90;;;8.60;99.90;;;;;;6708548;88;20636;-80
2022/10/04 07:00:51;;;;;;;1999.90;999.90;;;8.70;99.90;;;;;;6678328;88;20186;-81
2022/10/04 07:10:55;;;;;;;1999.90;999.90;;;8.90;99.90;;;;;;6710496;88;20213;-80
2022/10/04 07:21:07;;;;;;;1999.90;999.90;;;8.80;99.90;;;;;;6647112;89;20215;-79
2022/10/04 07:31:19;;;;;;;1999.90;999.90;;;9.00;99.90;;;;;;6641248;89;20248;-79
2022/10/04 07:41:27;;;;;;;1999.90;999.90;;;9.60;99.90;;;;;;6640862;89;20198;-81
2022/10/04 07:51:39;;;;;;;1999.90;999.90;;;9.90;99.90;;;;;;6637894;89;20180;-82
2022/10/04 08:01:51;;;;;;;1999.90;999.90;;;10.20;99.90;;;;;;6637002;89;20745;-78
2022/10/04 08:12:20;;;;;;;1999.90;999.90;;;10.60;99.90;;;;;;6636078;89;20218;-81
2022/10/04 08:22:33;;;;;;;1999.90;999.90;;;10.80;99.90;;;;;;6637189;89;20575;-81
2022/10/04 08:33:00;;;;;;;1999.90;999.90;;;11.10;99.90;;;;;;6635077;89;20272;-80
2022/10/04 08:43:24;;;;;;;1999.90;999.90;;;11.30;99.90;;;;;;6721170;88;20225;-80
2022/10/04 08:53:34;;;;;;;1999.90;999.90;;;11.70;99.90;;;;;;6696354;77;20216;-78
2022/10/04 09:03:57;;;;;;;1999.90;999.90;;;12.10;99.90;;;;;;6658650;88;20177;-76
2022/10/04 09:14:30;;;;;;;1999.90;999.90;;;12.50;99.90;;;;;;6645272;88;20190;-77
2022/10/04 09:24:33;;;;;;;1999.90;999.90;;;13.30;99.90;;;;;;6637510;89;20668;-77
2022/10/04 09:34:58;;;;;;;1999.90;999.90;;;13.70;99.90;;;;;;6638830;88;20293;-78
2022/10/04 09:45:46;;;;;;;1999.90;999.90;;;14.20;99.90;;;;;;6632804;88;20246;-77
2022/10/04 09:55:57;;;;;;;1999.90;999.90;;;14.50;99.90;;;;;;6633501;89;20695;-76
2022/10/04 10:06:22;;;;;;;1999.90;999.90;;;15.30;99.90;;;;;;6630893;89;20612;-77
2022/10/04 10:16:59;;;;;;;1999.90;999.90;;;16.10;99.90;;;;;;6634166;89;20311;-77
2022/10/04 10:27:24;;;;;;;1999.90;999.90;;;17.10;99.90;;;;;;6631486;88;20202;-77
2022/10/04 10:37:59;;;;;;;1999.90;999.90;;;16.80;99.90;;;;;;6627047;89;20195;-77
2022/10/04 10:48:17;;;;;;;1999.90;999.90;;;17.90;99.90;;;;;;6633090;88;20201;-76
2022/10/04 10:58:47;;;;;;;1999.90;999.90;;;18.90;99.90;;;;;;6632741;89;20213;-75
2022/10/04 11:09:18;;;;;;;1999.90;999.90;;;18.60;99.90;;;;;;6630882;89;20317;-77
2022/10/04 11:19:43;;;;;;;1999.90;999.90;;;19.50;99.90;;;;;;6633346;88;20206;-79
2022/10/04 11:30:02;;;;;;;1999.90;999.90;;;19.10;99.90;;;;;;6634694;89;20247;-78
2022/10/04 11:40:27;;;;;;;1999.90;999.90;;;18.90;99.90;;;;;;6637758;88;20200;-78
2022/10/04 11:50:59;;;;;;;1999.90;999.90;;;19.50;99.90;;;;;;6642862;88;20205;-78
2022/10/04 12:01:29;;;;;;;1999.90;999.90;;;19.60;99.90;;;;;;6635545;88;20231;-78
2022/10/04 12:22:38;;;;;;;1999.90;999.90;;;19.80;99.90;;;;;;6630264;89;20209;-78
2022/10/04 12:33:02;;;;;;;1999.90;999.90;;;20.50;99.90;;;;;;6629059;89;20630;-78
2022/10/04 12:43:30;;;;;;;1999.90;999.90;;;20.90;99.90;;;;;;6626801;89;21395;-78
2022/10/04 12:54:06;;;;;;;1999.90;999.90;;;21.80;99.90;;;;;;6629879;88;20209;-78
2022/10/04 13:04:21;;;;;;;1999.90;999.90;;;21.00;99.90;;;;;;6623249;88;20187;-79
2022/10/04 13:14:37;;;;;;;1999.90;999.90;;;21.20;99.90;;;;;;6632666;89;20188;-79
2022/10/04 13:25:11;;;;;;;1999.90;999.90;;;21.30;99.90;;;;;;6634952;89;20184;-77
2022/10/04 13:35:12;;;;;;;1999.90;999.90;;;21.10;99.90;;;;;;6625124;89;20223;-78
2022/10/04 13:45:42;;;;;;;1999.90;999.90;;;21.50;99.90;;;;;;6632326;89;20191;-79
2022/10/04 14:06:43;;;;;;;1999.90;999.90;;;21.80;99.90;;;;;;6634684;89;20204;-79
2022/10/04 14:17:02;;;;;;;1999.90;999.90;;;21.50;99.90;;;;;;6621677;89;20181;-78
2022/10/04 14:27:06;;;;;;;1999.90;999.90;;;21.60;99.90;;;;;;6619457;89;20251;-79
2022/10/04 14:37:59;;;;;;;1999.90;999.90;;;22.00;99.90;;;;;;6620594;89;20224;-78
2022/10/04 14:48:06;;;;;;;1999.90;999.90;;;21.40;99.90;;;;;;6620682;89;21055;-78
2022/10/04 14:58:21;;;;;;;1999.90;999.90;;;21.40;99.90;;;;;;6622502;89;20240;-80
2022/10/04 15:08:25;;;;;;;1999.90;999.90;;;21.30;99.90;;;;;;6628010;89;20674;-77
2022/10/04 15:18:37;;;;;;;1999.90;999.90;;;21.70;99.90;;;;;;6631388;89;20260;-79
2022/10/04 15:29:06;;;;;;;1999.90;999.90;;;21.40;99.90;;;;;;6635771;89;20302;-79
2022/10/04 15:39:42;;;;;;;1999.90;999.90;;;21.00;99.90;;;;;;6628766;89;20807;-79
2022/10/04 15:50:02;;;;;;;1999.90;999.90;;;21.10;99.90;;;;;;6621645;89;20591;-78
2022/10/04 16:00:14;;;;;;;1999.90;999.90;;;20.70;99.90;;;;;;6631405;88;20201;-75
2022/10/04 16:10:29;;;;;;;1999.90;999.90;;;20.40;99.90;;;;;;6628207;88;20708;-79
2022/10/04 16:20:33;;;;;;;1999.90;999.90;;;20.00;99.90;;;;;;6635511;89;20189;-78
2022/10/04 16:31:11;;;;;;;1999.90;999.90;;;19.60;99.90;;;;;;6648371;89;20205;-78
2022/10/04 16:41:34;;;;;;;1999.90;999.90;;;19.60;99.90;;;;;;6635702;89;20262;-78
2022/10/04 16:51:47;;;;;;;1999.90;999.90;;;19.20;99.90;;;;;;6638736;89;20265;-79
2022/10/04 17:02:14;;;;;;;1999.90;999.90;;;18.50;99.90;;;;;;6638627;89;20192;-78
2022/10/04 17:12:34;;;;;;;1999.90;999.90;;;18.00;99.90;;;;;;6623378;89;20199;-78
2022/10/04 17:22:56;;;;;;;1999.90;999.90;;;18.00;99.90;;;;;;6621763;89;20606;-78
2022/10/04 17:33:11;;;;;;;1999.90;999.90;;;17.80;99.90;;;;;;6621110;89;20813;-78
2022/10/04 17:43:27;;;;;;;1999.90;999.90;;;17.70;99.90;;;;;;6616993;89;20722;-78
2022/10/04 18:04:16;;;;;;;1999.90;999.90;;;17.40;99.90;;;;;;6619001;89;20178;-78
2022/10/04 18:14:44;;;;;;;1999.90;999.90;;;17.30;99.90;;;;;;6619273;89;20205;-79
2022/10/04 18:24:47;;;;;;;1999.90;999.90;;;17.10;99.90;;;;;;6616475;89;20317;-79
2022/10/04 18:34:57;;;;;;;1999.90;999.90;;;16.30;99.90;;;;;;6617877;89;20245;-80
2022/10/04 18:45:01;;;;;;;1999.90;999.90;;;15.80;99.90;;;;;;6618456;89;20615;-79
2022/10/04 18:55:32;;;;;;;1999.90;999.90;;;15.40;99.90;;;;;;6617551;89;20662;-79
2022/10/04 19:05:50;;;;;;;1999.90;999.90;;;15.10;99.90;;;;;;6617485;89;21576;-80
2022/10/04 19:16:11;;;;;;;1999.90;999.90;;;14.90;99.90;;;;;;6617151;89;20675;-80
2022/10/04 19:26:21;;;;;;;1999.90;999.90;;;14.60;99.90;;;;;;6622318;89;20177;-80
2022/10/04 19:36:52;;;;;;;1999.90;999.90;;;14.50;99.90;;;;;;6627848;89;20717;-82
2022/10/04 19:47:18;;;;;;;1999.90;999.90;;;14.30;99.90;;;;;;6620082;89;20178;-80
2022/10/04 19:57:26;;;;;;;;;;;14.30;99.90;;;;;;6617332;89;20193;-81
2022/10/04 20:07:27;;;;;;;1999.90;999.90;;;14.20;99.90;;;;;;6622645;89;20607;-79
2022/10/04 20:17:32;;;;;;;1999.90;999.90;;;14.00;99.90;;;;;;6617678;89;20323;-80
2022/10/04 20:27:35;;;;;;;1999.90;999.90;;;14.00;99.90;;;;;;6615558;89;20204;-80
2022/10/04 20:37:51;;;;;;;1999.90;999.90;;;14.10;99.90;;;;;;6617580;89;20197;-81
2022/10/04 20:47:53;;;;;;;;;;;14.10;99.90;;;;;;6618285;89;20771;-79
2022/10/04 20:58:16;;;;;;;1999.90;999.90;;;14.00;99.90;;;;;;6678092;77;20069;-80
2022/10/04 21:08:22;;;;;;;1999.90;999.90;;;13.80;99.90;;;;;;6671537;88;20180;-80
2022/10/04 21:18:23;;;;;;;1999.90;999.90;;;13.70;99.90;;;;;;6659965;89;20197;-79
2022/10/04 21:28:31;;;;;;;1999.90;999.90;;;13.40;99.90;;;;;;6638799;89;20213;-80
2022/10/04 21:38:31;;;;;;;1999.90;999.90;;;13.50;99.90;;;;;;6639075;89;20571;-80
2022/10/04 21:48:32;;;;;;;1999.90;999.90;;;13.00;99.90;;;;;;6643684;89;20250;-79
2022/10/04 21:58:33;;;;;;;1999.90;999.90;;;12.90;99.90;;;;;;6643061;89;21082;-79
2022/10/04 22:08:33;;;;;;;1999.90;999.90;;;12.70;99.90;;;;;;6639032;89;20275;-79
2022/10/04 22:18:34;;;;;;;1999.90;999.90;;;12.50;99.90;;;;;;6655730;89;20210;-79
2022/10/04 22:28:38;;;;;;;1999.90;999.90;;;12.50;99.90;;;;;;6659663;89;20195;-79
2022/10/04 22:38:49;;;;;;;1999.90;999.90;;;12.30;99.90;;;;;;6649053;89;21994;-80
2022/10/04 22:48:49;;;;;;;1999.90;999.90;;;12.40;99.90;;;;;;6660444;89;20188;-79
2022/10/04 22:58:50;;;;;;;1999.90;999.90;;;12.30;99.90;;;;;;6658081;89;20210;-79
2022/10/04 23:08:51;;;;;;;1999.90;999.90;;;12.10;99.90;;;;;;6643813;88;20199;-80
2022/10/04 23:19:01;;;;;;;1999.90;999.90;;;11.80;99.90;;;;;;6650897;89;20195;-80
2022/10/04 23:29:06;;;;;;;1999.90;999.90;;;11.70;99.90;;;;;;6645399;89;20184;-79
2022/10/04 23:39:11;;;;;;;1999.90;999.90;;;11.60;99.90;;;;;;6638914;89;20703;-79
2022/10/04 23:49:17;;;;;;;1999.90;999.90;;;11.70;99.90;;;;;;6645880;89;20618;-79
2022/10/04 23:59:21;;;;;;;1999.90;999.90;;;11.50;99.90;;;;;;6642390;89;21034;-80
